Disclaimer

Please do not use the information listed here in-flight or in-navigation, as they are not provided to us by the airports but are provided by volunteers, so they might be outdated.

Search


Regions


Airport information page

Radio informations:
Tower (TWR) - 120.45 MHz
Automatic Terminal Information Service (ATIS) - 118.75 MHz
BUCURESTI RDR - 122.9 MHz

Airport informations:
Latitude: 44° 21' 44.00" N
Longitude: 028° 29' 18.00" E
Elevation: 353 feet - 108 meters
Operating hours: N/A
Operating agency: Military-civil joint use airport
Timezone: UTC+2(+3DT)
Fuel: N/A

Runway information:
18/36 - 11483 x 148 feet< - >3500 x 45 meters

Recent METARs:
LRCK 160630Z 36017KT 9999 FEW015 OVC048 02/M03 Q1027 RESN NOSIG
LRCK 160700Z 35019KT 8000 -SN SCT028 BKN037 01/M03 Q1027 NOSIG
LRCK 160730Z 35017KT 3000 -SN BR SCT021 BKN034 00/M02 Q1027 NOSIG

Airport on the map: